sensor_id;sensor_type;location;lat;lon;timestamp;pressure;altitude;pressure_sealevel;temperature;humidity
45129;BME280;35512;56.312;101.728;2023-02-25T00:02:07;96436.13;;;-9.27;54.30
45129;BME280;35512;56.312;101.728;2023-02-25T00:04:37;96436.25;;;-9.33;54.29
45129;BME280;35512;56.312;101.728;2023-02-25T00:07:08;96452.97;;;-9.35;54.20
45129;BME280;35512;56.312;101.728;2023-02-25T00:09:37;96460.84;;;-9.46;54.33
45129;BME280;35512;56.312;101.728;2023-02-25T00:12:06;96450.53;;;-9.53;54.14
45129;BME280;35512;56.312;101.728;2023-02-25T00:14:35;96461.88;;;-9.47;54.82
45129;BME280;35512;56.312;101.728;2023-02-25T00:17:03;96459.72;;;-9.51;54.67
45129;BME280;35512;56.312;101.728;2023-02-25T00:19:32;96459.03;;;-9.46;54.70
45129;BME280;35512;56.312;101.728;2023-02-25T00:22:01;96454.69;;;-9.40;54.31
45129;BME280;35512;56.312;101.728;2023-02-25T00:24:30;96449.72;;;-9.42;54.57
45129;BME280;35512;56.312;101.728;2023-02-25T00:26:59;96445.72;;;-9.44;54.39
45129;BME280;35512;56.312;101.728;2023-02-25T00:29:29;96447.78;;;-9.46;54.20
45129;BME280;35512;56.312;101.728;2023-02-25T00:31:58;96450.97;;;-9.44;54.38
45129;BME280;35512;56.312;101.728;2023-02-25T00:34:27;96434.56;;;-9.40;54.43
45129;BME280;35512;56.312;101.728;2023-02-25T00:36:56;96423.63;;;-9.37;54.06
45129;BME280;35512;56.312;101.728;2023-02-25T00:39:25;96415.47;;;-9.40;54.26
45129;BME280;35512;56.312;101.728;2023-02-25T00:42:14;96407.88;;;-9.42;54.30
45129;BME280;35512;56.312;101.728;2023-02-25T00:44:45;96404.38;;;-9.30;54.30
45129;BME280;35512;56.312;101.728;2023-02-25T00:47:16;96391.06;;;-9.29;53.94
45129;BME280;35512;56.312;101.728;2023-02-25T00:49:46;96384.34;;;-9.25;54.21
45129;BME280;35512;56.312;101.728;2023-02-25T00:52:19;96385.63;;;-9.10;54.01
45129;BME280;35512;56.312;101.728;2023-02-25T00:54:48;96373.50;;;-8.99;54.26
45129;BME280;35512;56.312;101.728;2023-02-25T00:57:17;96378.31;;;-8.74;53.60
45129;BME280;35512;56.312;101.728;2023-02-25T00:59:46;96372.00;;;-8.56;53.79
45129;BME280;35512;56.312;101.728;2023-02-25T01:02:16;96382.19;;;-8.38;53.47
45129;BME280;35512;56.312;101.728;2023-02-25T01:04:46;96389.16;;;-8.26;52.85
45129;BME280;35512;56.312;101.728;2023-02-25T01:07:15;96378.63;;;-8.09;53.34
45129;BME280;35512;56.312;101.728;2023-02-25T01:09:44;96383.69;;;-7.81;52.81
45129;BME280;35512;56.312;101.728;2023-02-25T01:12:13;96370.66;;;-7.48;52.54
45129;BME280;35512;56.312;101.728;2023-02-25T01:14:42;96367.44;;;-7.23;52.27
45129;BME280;35512;56.312;101.728;2023-02-25T01:17:11;96371.53;;;-7.05;51.30
45129;BME280;35512;56.312;101.728;2023-02-25T01:19:40;96362.41;;;-6.97;51.32
45129;BME280;35512;56.312;101.728;2023-02-25T01:22:09;96363.16;;;-6.69;51.15
45129;BME280;35512;56.312;101.728;2023-02-25T01:24:38;96377.47;;;-6.44;50.75
45129;BME280;35512;56.312;101.728;2023-02-25T01:27:07;96381.56;;;-6.16;50.39
45129;BME280;35512;56.312;101.728;2023-02-25T01:29:39;96373.25;;;-5.87;49.71
45129;BME280;35512;56.312;101.728;2023-02-25T01:32:11;96376.72;;;-5.71;49.43
45129;BME280;35512;56.312;101.728;2023-02-25T01:34:41;96371.50;;;-5.56;48.74
45129;BME280;35512;56.312;101.728;2023-02-25T01:37:10;96378.59;;;-5.51;48.86
45129;BME280;35512;56.312;101.728;2023-02-25T01:39:39;96377.88;;;-5.26;49.46
45129;BME280;35512;56.312;101.728;2023-02-25T01:42:16;96375.25;;;-4.64;48.74
45129;BME280;35512;56.312;101.728;2023-02-25T01:45:23;96382.97;;;-3.87;48.05
45129;BME280;35512;56.312;101.728;2023-02-25T01:50:28;96388.34;;;-2.14;46.90
45129;BME280;35512;56.312;101.728;2023-02-25T01:52:59;96391.78;;;-1.46;44.87
45129;BME280;35512;56.312;101.728;2023-02-25T01:55:30;96390.84;;;-1.56;43.10
45129;BME280;35512;56.312;101.728;2023-02-25T01:58:00;96393.69;;;-1.28;43.65
45129;BME280;35512;56.312;101.728;2023-02-25T02:00:30;96386.72;;;-0.86;42.76
45129;BME280;35512;56.312;101.728;2023-02-25T02:03:01;96380.19;;;-0.60;42.18
45129;BME280;35512;56.312;101.728;2023-02-25T02:05:44;96376.84;;;-0.66;41.12
45129;BME280;35512;56.312;101.728;2023-02-25T02:08:15;96371.41;;;-0.42;41.86
45129;BME280;35512;56.312;101.728;2023-02-25T02:10:45;96373.09;;;-0.04;42.15
45129;BME280;35512;56.312;101.728;2023-02-25T02:13:14;96371.81;;;0.49;41.11
45129;BME280;35512;56.312;101.728;2023-02-25T02:16:11;96368.88;;;1.10;40.55
45129;BME280;35512;56.312;101.728;2023-02-25T02:18:54;96372.63;;;1.09;39.34
45129;BME280;35512;56.312;101.728;2023-02-25T02:35:41;96331.97;;;1.62;37.78
45129;BME280;35512;56.312;101.728;2023-02-25T02:38:20;96324.69;;;1.85;37.53
45129;BME280;35512;56.312;101.728;2023-02-25T02:43:47;96305.78;;;1.56;35.76
45129;BME280;35512;56.312;101.728;2023-02-25T02:46:24;96305.50;;;1.34;36.90
45129;BME280;35512;56.312;101.728;2023-02-25T02:49:14;96309.13;;;1.70;37.57
45129;BME280;35512;56.312;101.728;2023-02-25T02:51:52;96315.91;;;2.51;36.38
45129;BME280;35512;56.312;101.728;2023-02-25T02:54:30;96315.94;;;2.86;35.45
45129;BME280;35512;56.312;101.728;2023-02-25T02:57:00;96296.63;;;2.90;35.36
45129;BME280;35512;56.312;101.728;2023-02-25T02:59:42;96308.28;;;3.88;34.75
45129;BME280;35512;56.312;101.728;2023-02-25T03:02:17;96307.53;;;4.39;34.53
45129;BME280;35512;56.312;101.728;2023-02-25T03:04:50;96313.09;;;4.97;34.30
45129;BME280;35512;56.312;101.728;2023-02-25T03:07:21;96311.09;;;4.73;31.91
45129;BME280;35512;56.312;101.728;2023-02-25T03:09:55;96305.94;;;4.47;31.68
45129;BME280;35512;56.312;101.728;2023-02-25T03:12:31;96289.91;;;4.17;31.77
45129;BME280;35512;56.312;101.728;2023-02-25T03:15:01;96314.53;;;4.52;33.09
45129;BME280;35512;56.312;101.728;2023-02-25T03:17:34;96319.44;;;4.71;32.30
45129;BME280;35512;56.312;101.728;2023-02-25T03:22:42;96332.50;;;5.61;34.11
45129;BME280;35512;56.312;101.728;2023-02-25T03:25:20;96326.59;;;5.68;33.07
45129;BME280;35512;56.312;101.728;2023-02-25T03:27:52;96327.38;;;5.81;34.36
45129;BME280;35512;56.312;101.728;2023-02-25T03:30:38;96333.09;;;5.79;34.13
45129;BME280;35512;56.312;101.728;2023-02-25T03:33:20;96317.72;;;6.01;34.90
45129;BME280;35512;56.312;101.728;2023-02-25T03:35:55;96313.03;;;6.35;33.48
45129;BME280;35512;56.312;101.728;2023-02-25T03:38:26;96305.91;;;6.80;32.87
45129;BME280;35512;56.312;101.728;2023-02-25T03:40:59;96302.28;;;6.88;31.14
45129;BME280;35512;56.312;101.728;2023-02-25T03:43:51;96294.13;;;6.84;31.20
45129;BME280;35512;56.312;101.728;2023-02-25T03:46:21;96289.25;;;6.74;31.04
45129;BME280;35512;56.312;101.728;2023-02-25T03:48:52;96288.22;;;6.79;31.21
45129;BME280;35512;56.312;101.728;2023-02-25T03:51:28;96282.69;;;7.00;31.40
45129;BME280;35512;56.312;101.728;2023-02-25T03:53:58;96291.69;;;7.07;30.04
45129;BME280;35512;56.312;101.728;2023-02-25T03:56:41;96279.31;;;7.03;31.02
45129;BME280;35512;56.312;101.728;2023-02-25T03:59:10;96288.13;;;7.03;29.59
45129;BME280;35512;56.312;101.728;2023-02-25T04:01:41;96285.63;;;6.54;29.69
45129;BME280;35512;56.312;101.728;2023-02-25T04:04:12;96286.34;;;6.14;30.18
45129;BME280;35512;56.312;101.728;2023-02-25T04:06:41;96287.94;;;6.55;31.58
45129;BME280;35512;56.312;101.728;2023-02-25T04:09:10;96295.03;;;7.61;31.32
45129;BME280;35512;56.312;101.728;2023-02-25T04:11:41;96290.44;;;7.77;30.33
45129;BME280;35512;56.312;101.728;2023-02-25T04:14:10;96286.44;;;7.71;29.90
45129;BME280;35512;56.312;101.728;2023-02-25T04:16:39;96266.19;;;8.09;29.36
45129;BME280;35512;56.312;101.728;2023-02-25T04:19:07;96275.53;;;7.80;27.80
45129;BME280;35512;56.312;101.728;2023-02-25T04:21:37;96274.00;;;7.19;27.87
45129;BME280;35512;56.312;101.728;2023-02-25T04:24:07;96270.91;;;6.76;28.83
45129;BME280;35512;56.312;101.728;2023-02-25T04:26:36;96275.16;;;6.77;29.73
45129;BME280;35512;56.312;101.728;2023-02-25T04:29:05;96273.19;;;6.62;30.87
45129;BME280;35512;56.312;101.728;2023-02-25T04:31:34;96283.75;;;6.83;31.37
45129;BME280;35512;56.312;101.728;2023-02-25T04:34:03;96272.59;;;6.81;30.62
45129;BME280;35512;56.312;101.728;2023-02-25T04:36:34;96268.81;;;6.16;29.88
45129;BME280;35512;56.312;101.728;2023-02-25T04:39:04;96274.31;;;5.37;30.84
45129;BME280;35512;56.312;101.728;2023-02-25T04:41:34;96270.97;;;4.73;31.70
45129;BME280;35512;56.312;101.728;2023-02-25T04:44:05;96276.47;;;4.55;32.03
45129;BME280;35512;56.312;101.728;2023-02-25T04:46:39;96268.13;;;4.57;32.56
45129;BME280;35512;56.312;101.728;2023-02-25T04:49:09;96253.38;;;4.72;32.22
45129;BME280;35512;56.312;101.728;2023-02-25T04:51:38;96254.47;;;4.29;32.06
45129;BME280;35512;56.312;101.728;2023-02-25T04:54:07;96252.09;;;3.76;32.67
45129;BME280;35512;56.312;101.728;2023-02-25T04:56:37;96247.75;;;3.24;32.78
45129;BME280;35512;56.312;101.728;2023-02-25T04:59:06;96239.19;;;2.83;32.87
45129;BME280;35512;56.312;101.728;2023-02-25T05:01:36;96242.34;;;2.24;32.27
45129;BME280;35512;56.312;101.728;2023-02-25T05:04:06;96243.00;;;1.63;33.80
45129;BME280;35512;56.312;101.728;2023-02-25T05:06:35;96234.22;;;1.54;33.99
45129;BME280;35512;56.312;101.728;2023-02-25T05:09:04;96234.88;;;1.60;34.58
45129;BME280;35512;56.312;101.728;2023-02-25T05:11:35;96225.06;;;1.78;34.45
45129;BME280;35512;56.312;101.728;2023-02-25T05:14:04;96230.88;;;1.89;34.14
45129;BME280;35512;56.312;101.728;2023-02-25T05:16:33;96234.81;;;2.00;34.06
45129;BME280;35512;56.312;101.728;2023-02-25T05:19:02;96225.72;;;2.01;34.10
45129;BME280;35512;56.312;101.728;2023-02-25T05:21:32;96225.41;;;2.11;34.53
45129;BME280;35512;56.312;101.728;2023-02-25T05:24:00;96224.94;;;2.09;34.08
45129;BME280;35512;56.312;101.728;2023-02-25T05:26:29;96216.47;;;2.07;34.36
45129;BME280;35512;56.312;101.728;2023-02-25T05:28:58;96208.97;;;2.00;34.67
45129;BME280;35512;56.312;101.728;2023-02-25T05:31:27;96211.00;;;2.12;35.17
45129;BME280;35512;56.312;101.728;2023-02-25T05:33:56;96212.41;;;2.10;34.24
45129;BME280;35512;56.312;101.728;2023-02-25T05:36:25;96215.53;;;1.85;35.13
45129;BME280;35512;56.312;101.728;2023-02-25T05:38:56;96212.38;;;1.75;35.10
45129;BME280;35512;56.312;101.728;2023-02-25T05:41:30;96212.00;;;1.59;35.23
45129;BME280;35512;56.312;101.728;2023-02-25T05:43:59;96201.28;;;1.32;35.12
45129;BME280;35512;56.312;101.728;2023-02-25T05:46:28;96199.94;;;1.12;35.60
45129;BME280;35512;56.312;101.728;2023-02-25T05:48:58;96197.84;;;1.00;35.54
45129;BME280;35512;56.312;101.728;2023-02-25T05:51:27;96190.19;;;0.76;35.00
45129;BME280;35512;56.312;101.728;2023-02-25T05:53:55;96169.59;;;0.28;35.92
45129;BME280;35512;56.312;101.728;2023-02-25T05:56:25;96183.00;;;0.45;36.29
45129;BME280;35512;56.312;101.728;2023-02-25T05:58:58;96174.28;;;0.31;36.26
45129;BME280;35512;56.312;101.728;2023-02-25T06:01:28;96172.47;;;0.17;36.10
45129;BME280;35512;56.312;101.728;2023-02-25T06:03:59;96180.59;;;-0.02;36.18
45129;BME280;35512;56.312;101.728;2023-02-25T06:06:30;96184.75;;;-0.23;36.45
45129;BME280;35512;56.312;101.728;2023-02-25T06:09:00;96183.31;;;-0.29;37.26
45129;BME280;35512;56.312;101.728;2023-02-25T06:11:29;96184.72;;;-0.46;37.33
45129;BME280;35512;56.312;101.728;2023-02-25T06:13:58;96167.13;;;-0.70;37.61
45129;BME280;35512;56.312;101.728;2023-02-25T06:16:27;96174.59;;;-0.86;37.41
45129;BME280;35512;56.312;101.728;2023-02-25T06:19:00;96176.28;;;-1.04;37.86
45129;BME280;35512;56.312;101.728;2023-02-25T06:21:29;96172.44;;;-1.11;37.91
45129;BME280;35512;56.312;101.728;2023-02-25T06:24:00;96152.66;;;-1.33;38.46
45129;BME280;35512;56.312;101.728;2023-02-25T06:26:32;96155.31;;;-1.33;38.01
45129;BME280;35512;56.312;101.728;2023-02-25T06:29:02;96164.50;;;-1.44;38.21
45129;BME280;35512;56.312;101.728;2023-02-25T06:31:31;96139.25;;;-1.56;38.98
45129;BME280;35512;56.312;101.728;2023-02-25T06:34:02;96134.00;;;-1.42;38.37
45129;BME280;35512;56.312;101.728;2023-02-25T06:36:31;96108.97;;;-1.49;38.94
45129;BME280;35512;56.312;101.728;2023-02-25T06:39:00;96140.56;;;-1.39;38.73
45129;BME280;35512;56.312;101.728;2023-02-25T06:41:29;96136.69;;;-1.28;39.39
45129;BME280;35512;56.312;101.728;2023-02-25T06:43:58;96147.50;;;-1.10;39.06
45129;BME280;35512;56.312;101.728;2023-02-25T06:46:27;96135.03;;;-1.10;39.52
45129;BME280;35512;56.312;101.728;2023-02-25T06:48:56;96145.81;;;-0.78;39.60
45129;BME280;35512;56.312;101.728;2023-02-25T06:51:25;96154.72;;;-0.46;39.38
45129;BME280;35512;56.312;101.728;2023-02-25T06:53:54;96143.00;;;-0.31;39.08
45129;BME280;35512;56.312;101.728;2023-02-25T06:56:23;96139.31;;;-0.08;39.02
45129;BME280;35512;56.312;101.728;2023-02-25T06:58:53;96143.97;;;0.09;38.87
45129;BME280;35512;56.312;101.728;2023-02-25T07:01:25;96155.22;;;0.29;38.52
45129;BME280;35512;56.312;101.728;2023-02-25T07:03:55;96146.97;;;0.62;39.30
45129;BME280;35512;56.312;101.728;2023-02-25T07:06:24;96144.63;;;0.92;38.77
45129;BME280;35512;56.312;101.728;2023-02-25T07:08:53;96142.50;;;1.11;39.06
45129;BME280;35512;56.312;101.728;2023-02-25T07:11:28;96140.09;;;1.41;38.15
45129;BME280;35512;56.312;101.728;2023-02-25T07:13:58;96128.22;;;1.65;38.27
45129;BME280;35512;56.312;101.728;2023-02-25T07:16:27;96132.66;;;1.96;37.83
45129;BME280;35512;56.312;101.728;2023-02-25T07:18:57;96133.59;;;2.35;38.27
45129;BME280;35512;56.312;101.728;2023-02-25T07:21:29;96126.41;;;2.83;37.53
45129;BME280;35512;56.312;101.728;2023-02-25T07:23:59;96125.16;;;3.19;37.86
45129;BME280;35512;56.312;101.728;2023-02-25T07:26:27;96121.53;;;3.53;37.41
45129;BME280;35512;56.312;101.728;2023-02-25T07:28:58;96123.97;;;3.67;37.58
45129;BME280;35512;56.312;101.728;2023-02-25T07:31:27;96140.84;;;3.50;37.80
45129;BME280;35512;56.312;101.728;2023-02-25T07:33:57;96135.34;;;3.26;37.97
45129;BME280;35512;56.312;101.728;2023-02-25T07:36:34;96142.84;;;2.94;38.60
45129;BME280;35512;56.312;101.728;2023-02-25T07:39:06;96143.88;;;2.63;38.83
45129;BME280;35512;56.312;101.728;2023-02-25T07:41:37;96154.25;;;2.38;39.63
45129;BME280;35512;56.312;101.728;2023-02-25T07:44:06;96147.22;;;2.16;39.73
45129;BME280;35512;56.312;101.728;2023-02-25T07:46:35;96142.19;;;1.88;38.90
45129;BME280;35512;56.312;101.728;2023-02-25T07:49:04;96139.50;;;1.53;38.89
45129;BME280;35512;56.312;101.728;2023-02-25T07:51:33;96132.66;;;1.12;39.19
45129;BME280;35512;56.312;101.728;2023-02-25T07:54:02;96124.09;;;0.83;39.80
45129;BME280;35512;56.312;101.728;2023-02-25T07:56:31;96128.31;;;0.84;39.28
45129;BME280;35512;56.312;101.728;2023-02-25T07:59:00;96125.75;;;0.71;39.41
45129;BME280;35512;56.312;101.728;2023-02-25T08:01:31;96125.94;;;0.74;39.43
45129;BME280;35512;56.312;101.728;2023-02-25T08:04:04;96120.00;;;0.77;39.28
45129;BME280;35512;56.312;101.728;2023-02-25T08:06:37;96126.59;;;0.80;39.62
45129;BME280;35512;56.312;101.728;2023-02-25T08:09:08;96127.34;;;0.80;40.02
45129;BME280;35512;56.312;101.728;2023-02-25T08:11:40;96121.78;;;0.91;39.32
45129;BME280;35512;56.312;101.728;2023-02-25T08:14:10;96113.16;;;0.85;39.74
45129;BME280;35512;56.312;101.728;2023-02-25T08:16:39;96101.91;;;0.88;39.69
45129;BME280;35512;56.312;101.728;2023-02-25T08:19:08;96109.47;;;1.04;39.14
45129;BME280;35512;56.312;101.728;2023-02-25T08:21:37;96102.75;;;1.06;39.62
45129;BME280;35512;56.312;101.728;2023-02-25T08:24:08;96103.13;;;1.22;39.04
45129;BME280;35512;56.312;101.728;2023-02-25T08:26:37;96092.97;;;1.33;39.48
45129;BME280;35512;56.312;101.728;2023-02-25T08:29:06;96103.50;;;1.56;39.30
45129;BME280;35512;56.312;101.728;2023-02-25T08:31:35;96102.88;;;1.59;39.03
45129;BME280;35512;56.312;101.728;2023-02-25T08:34:04;96102.97;;;1.36;39.28
45129;BME280;35512;56.312;101.728;2023-02-25T08:36:33;96090.28;;;1.15;39.23
45129;BME280;35512;56.312;101.728;2023-02-25T08:39:03;96091.66;;;1.13;39.98
45129;BME280;35512;56.312;101.728;2023-02-25T08:41:32;96079.63;;;1.15;40.11
45129;BME280;35512;56.312;101.728;2023-02-25T08:44:02;96083.28;;;1.28;39.43
45129;BME280;35512;56.312;101.728;2023-02-25T08:46:34;96084.38;;;1.36;39.21
45129;BME280;35512;56.312;101.728;2023-02-25T08:49:05;96081.41;;;1.55;39.65
45129;BME280;35512;56.312;101.728;2023-02-25T08:51:34;96084.25;;;1.76;39.99
45129;BME280;35512;56.312;101.728;2023-02-25T08:54:09;96077.50;;;1.70;39.68
45129;BME280;35512;56.312;101.728;2023-02-25T08:56:39;96092.72;;;1.69;40.33
45129;BME280;35512;56.312;101.728;2023-02-25T08:59:15;96088.94;;;1.62;39.85
45129;BME280;35512;56.312;101.728;2023-02-25T09:01:44;96084.38;;;1.36;40.09
45129;BME280;35512;56.312;101.728;2023-02-25T09:04:19;96070.19;;;1.00;39.91
45129;BME280;35512;56.312;101.728;2023-02-25T09:06:50;96057.72;;;0.61;40.66
45129;BME280;35512;56.312;101.728;2023-02-25T09:09:21;96072.78;;;0.43;39.82
45129;BME280;35512;56.312;101.728;2023-02-25T09:11:51;96055.56;;;0.09;41.04
45129;BME280;35512;56.312;101.728;2023-02-25T09:14:21;96060.66;;;-0.04;40.90
45129;BME280;35512;56.312;101.728;2023-02-25T09:16:50;96051.06;;;-0.13;40.70
45129;BME280;35512;56.312;101.728;2023-02-25T09:19:19;96056.41;;;-0.27;40.16
45129;BME280;35512;56.312;101.728;2023-02-25T09:21:48;96057.56;;;-0.42;40.94
45129;BME280;35512;56.312;101.728;2023-02-25T09:24:17;96047.59;;;-0.59;40.53
45129;BME280;35512;56.312;101.728;2023-02-25T09:26:46;96048.19;;;-0.62;41.23
45129;BME280;35512;56.312;101.728;2023-02-25T09:29:15;96054.63;;;-0.55;41.20
45129;BME280;35512;56.312;101.728;2023-02-25T09:31:44;96049.63;;;-0.56;41.26
45129;BME280;35512;56.312;101.728;2023-02-25T09:34:13;96056.19;;;-0.54;41.10
45129;BME280;35512;56.312;101.728;2023-02-25T09:36:42;96056.50;;;-0.55;41.93
45129;BME280;35512;56.312;101.728;2023-02-25T09:39:12;96047.47;;;-0.54;41.90
45129;BME280;35512;56.312;101.728;2023-02-25T09:41:56;96044.63;;;-0.58;41.14
45129;BME280;35512;56.312;101.728;2023-02-25T09:44:33;96030.69;;;-0.63;41.65
45129;BME280;35512;56.312;101.728;2023-02-25T09:50:04;96047.34;;;-0.86;41.77
45129;BME280;35512;56.312;101.728;2023-02-25T09:53:02;96052.38;;;-0.98;42.12
45129;BME280;35512;56.312;101.728;2023-02-25T10:06:36;96034.50;;;-1.20;42.63
45129;BME280;35512;56.312;101.728;2023-02-25T10:11:59;96035.50;;;-1.44;42.54
45129;BME280;35512;56.312;101.728;2023-02-25T10:17:33;96044.03;;;-1.47;43.58
45129;BME280;35512;56.312;101.728;2023-02-25T10:20:34;96042.38;;;-1.43;43.43
45129;BME280;35512;56.312;101.728;2023-02-25T10:26:19;96051.22;;;-1.33;43.22
45129;BME280;35512;56.312;101.728;2023-02-25T10:28:58;96054.84;;;-1.29;43.27
45129;BME280;35512;56.312;101.728;2023-02-25T10:31:29;96051.91;;;-1.28;43.46
45129;BME280;35512;56.312;101.728;2023-02-25T10:34:22;96056.59;;;-1.25;43.22
45129;BME280;35512;56.312;101.728;2023-02-25T10:36:56;96061.31;;;-1.22;43.69
45129;BME280;35512;56.312;101.728;2023-02-25T10:39:26;96053.88;;;-1.20;43.88
45129;BME280;35512;56.312;101.728;2023-02-25T10:41:56;96044.34;;;-1.21;44.02
45129;BME280;35512;56.312;101.728;2023-02-25T10:44:25;96051.13;;;-1.14;43.75
45129;BME280;35512;56.312;101.728;2023-02-25T10:47:03;96045.31;;;-1.16;43.56
45129;BME280;35512;56.312;101.728;2023-02-25T10:49:34;96050.53;;;-1.11;43.55
45129;BME280;35512;56.312;101.728;2023-02-25T10:52:18;96059.16;;;-1.20;43.84
45129;BME280;35512;56.312;101.728;2023-02-25T10:54:49;96063.19;;;-1.22;43.53
45129;BME280;35512;56.312;101.728;2023-02-25T10:57:26;96060.91;;;-1.29;43.78
45129;BME280;35512;56.312;101.728;2023-02-25T10:59:59;96065.84;;;-1.36;43.53
45129;BME280;35512;56.312;101.728;2023-02-25T11:02:35;96053.28;;;-1.44;43.93
45129;BME280;35512;56.312;101.728;2023-02-25T11:05:30;96059.72;;;-1.50;44.31
45129;BME280;35512;56.312;101.728;2023-02-25T11:08:00;96048.53;;;-1.61;44.25
45129;BME280;35512;56.312;101.728;2023-02-25T11:10:29;96053.44;;;-1.55;43.86
45129;BME280;35512;56.312;101.728;2023-02-25T11:12:59;96056.09;;;-1.55;44.45
45129;BME280;35512;56.312;101.728;2023-02-25T11:15:34;96056.88;;;-1.54;44.30
45129;BME280;35512;56.312;101.728;2023-02-25T11:18:26;96053.84;;;-1.47;45.13
45129;BME280;35512;56.312;101.728;2023-02-25T11:21:00;96051.91;;;-1.42;44.19
45129;BME280;35512;56.312;101.728;2023-02-25T11:26:08;96055.81;;;-1.39;44.12
45129;BME280;35512;56.312;101.728;2023-02-25T11:28:47;96055.81;;;-1.39;44.59
45129;BME280;35512;56.312;101.728;2023-02-25T11:33:53;96054.66;;;-1.33;45.07
45129;BME280;35512;56.312;101.728;2023-02-25T11:36:34;96048.84;;;-1.35;44.60
45129;BME280;35512;56.312;101.728;2023-02-25T11:39:16;96055.53;;;-1.38;45.12
45129;BME280;35512;56.312;101.728;2023-02-25T11:41:47;96057.09;;;-1.37;45.30
45129;BME280;35512;56.312;101.728;2023-02-25T11:44:22;96067.88;;;-1.33;44.87
45129;BME280;35512;56.312;101.728;2023-02-25T11:47:18;96061.22;;;-1.30;45.15
45129;BME280;35512;56.312;101.728;2023-02-25T11:50:14;96064.84;;;-1.26;45.71
45129;BME280;35512;56.312;101.728;2023-02-25T12:07:17;96078.78;;;-1.48;45.96
45129;BME280;35512;56.312;101.728;2023-02-25T12:10:17;96085.72;;;-1.52;46.07
45129;BME280;35512;56.312;101.728;2023-02-25T12:13:18;96091.41;;;-1.59;46.14
45129;BME280;35512;56.312;101.728;2023-02-25T12:18:56;96100.50;;;-1.65;45.55
45129;BME280;35512;56.312;101.728;2023-02-25T12:39:10;96078.19;;;-1.45;46.17
45129;BME280;35512;56.312;101.728;2023-02-25T12:44:58;96077.28;;;-1.41;46.77
45129;BME280;35512;56.312;101.728;2023-02-25T13:02:11;96080.69;;;-1.54;46.84
45129;BME280;35512;56.312;101.728;2023-02-25T13:04:58;96081.28;;;-1.57;46.99
45129;BME280;35512;56.312;101.728;2023-02-25T13:16:03;96082.78;;;-1.65;46.81
45129;BME280;35512;56.312;101.728;2023-02-25T13:19:12;96084.31;;;-1.64;47.63
45129;BME280;35512;56.312;101.728;2023-02-25T13:24:37;96078.47;;;-1.61;47.53
45129;BME280;35512;56.312;101.728;2023-02-25T13:27:33;96089.84;;;-1.60;47.25
45129;BME280;35512;56.312;101.728;2023-02-25T13:33:32;96084.03;;;-1.62;47.28
45129;BME280;35512;56.312;101.728;2023-02-25T13:46:35;96100.59;;;-1.71;47.81
45129;BME280;35512;56.312;101.728;2023-02-25T13:49:32;96087.63;;;-1.72;47.40
45129;BME280;35512;56.312;101.728;2023-02-25T13:58:06;96097.66;;;-1.69;48.40
45129;BME280;35512;56.312;101.728;2023-02-25T14:16:00;96093.09;;;-1.49;47.51
45129;BME280;35512;56.312;101.728;2023-02-25T14:21:27;96103.84;;;-1.60;47.75
45129;BME280;35512;56.312;101.728;2023-02-25T14:27:21;96099.78;;;-1.85;48.22
45129;BME280;35512;56.312;101.728;2023-02-25T14:30:05;96104.84;;;-1.89;48.42
45129;BME280;35512;56.312;101.728;2023-02-25T14:38:41;96117.91;;;-1.92;47.99
45129;BME280;35512;56.312;101.728;2023-02-25T14:44:28;96107.94;;;-2.00;48.11
45129;BME280;35512;56.312;101.728;2023-02-25T14:47:12;96097.16;;;-2.04;48.42
45129;BME280;35512;56.312;101.728;2023-02-25T14:52:48;96115.97;;;-2.06;48.25
45129;BME280;35512;56.312;101.728;2023-02-25T15:01:23;96115.19;;;-2.06;49.15
45129;BME280;35512;56.312;101.728;2023-02-25T15:10:00;96127.34;;;-2.05;49.08
45129;BME280;35512;56.312;101.728;2023-02-25T15:20:49;96111.69;;;-2.01;48.96
45129;BME280;35512;56.312;101.728;2023-02-25T15:23:19;96121.38;;;-1.97;49.20
45129;BME280;35512;56.312;101.728;2023-02-25T15:26:18;96124.25;;;-1.93;49.42
45129;BME280;35512;56.312;101.728;2023-02-25T15:28:51;96121.63;;;-1.93;48.65
45129;BME280;35512;56.312;101.728;2023-02-25T15:31:29;96119.44;;;-1.91;49.16
45129;BME280;35512;56.312;101.728;2023-02-25T15:36:49;96116.50;;;-1.90;48.78
45129;BME280;35512;56.312;101.728;2023-02-25T15:42:10;96123.31;;;-1.83;49.06
45129;BME280;35512;56.312;101.728;2023-02-25T15:44:41;96121.66;;;-1.79;48.54
45129;BME280;35512;56.312;101.728;2023-02-25T15:47:17;96115.47;;;-1.75;49.36
45129;BME280;35512;56.312;101.728;2023-02-25T15:49:50;96109.13;;;-1.74;48.81
45129;BME280;35512;56.312;101.728;2023-02-25T15:52:52;96112.66;;;-1.64;48.71
45129;BME280;35512;56.312;101.728;2023-02-25T15:55:32;96109.66;;;-1.58;49.46
45129;BME280;35512;56.312;101.728;2023-02-25T16:00:55;96118.13;;;-1.42;49.37
45129;BME280;35512;56.312;101.728;2023-02-25T16:03:46;96099.97;;;-1.34;49.29
45129;BME280;35512;56.312;101.728;2023-02-25T16:06:26;96103.00;;;-1.27;48.88
45129;BME280;35512;56.312;101.728;2023-02-25T16:11:45;96100.97;;;-1.16;49.05
45129;BME280;35512;56.312;101.728;2023-02-25T16:14:21;96088.69;;;-1.12;49.10
45129;BME280;35512;56.312;101.728;2023-02-25T16:17:21;96099.19;;;-1.07;49.95
45129;BME280;35512;56.312;101.728;2023-02-25T16:19:57;96098.31;;;-1.03;49.29
45129;BME280;35512;56.312;101.728;2023-02-25T16:22:27;96093.81;;;-1.02;49.91
45129;BME280;35512;56.312;101.728;2023-02-25T16:24:58;96104.03;;;-0.95;49.43
45129;BME280;35512;56.312;101.728;2023-02-25T16:30:36;96109.19;;;-0.90;50.50
45129;BME280;35512;56.312;101.728;2023-02-25T16:33:39;96122.16;;;-0.89;49.83
45129;BME280;35512;56.312;101.728;2023-02-25T16:39:35;96121.69;;;-0.91;49.99
45129;BME280;35512;56.312;101.728;2023-02-25T16:41:44;96112.75;;;-0.95;50.51
45129;BME280;35512;56.312;101.728;2023-02-25T16:44:26;96114.78;;;-0.92;50.18